LPA weather

Gran Canaria Airport
Gran Canaria Island, Canary Islands, Spain

Public forecast

Using degrees Celsius for public forecast. Weather courtesy of forecast.io.

METAR (pilot weather report)

Retrieved 2018/08/17 05:30 UTC (34 minutes ago):

GCLP 170530Z 35017KT 9999 BKN035 23/16 Q1018 NOSIG

TAF (pilot weather forecast)

Retrieved 2018/08/17 03:33 UTC (3 hours ago):

TAF GCLP 170200Z 1703/1803 36021KT 9999 SCT030 TX26/1714Z TN20/1705Z PROB40 TEMPO 1703/1801 36024G34KT